sensor_id;sensor_type;location;lat;lon;timestamp;temperature;humidity
9043;DHT22;4556;49.150;8.808;2022-11-06T00:00:56;3.80;99.90
9043;DHT22;4556;49.150;8.808;2022-11-06T00:03:24;4.70;99.90
9043;DHT22;4556;49.150;8.808;2022-11-06T00:05:50;3.80;99.90
9043;DHT22;4556;49.150;8.808;2022-11-06T00:08:37;3.70;99.90
9043;DHT22;4556;49.150;8.808;2022-11-06T00:11:10;5.60;99.90
9043;DHT22;4556;49.150;8.808;2022-11-06T00:13:38;3.70;99.90
9043;DHT22;4556;49.150;8.808;2022-11-06T00:16:07;5.90;99.90
9043;DHT22;4556;49.150;8.808;2022-11-06T00:18:35;4.30;99.90
9043;DHT22;4556;49.150;8.808;2022-11-06T00:21:06;4.90;99.90
9043;DHT22;4556;49.150;8.808;2022-11-06T00:23:33;3.40;99.90
9043;DHT22;4556;49.150;8.808;2022-11-06T00:26:00;3.40;99.90
9043;DHT22;4556;49.150;8.808;2022-11-06T00:28:30;5.60;99.90
9043;DHT22;4556;49.150;8.808;2022-11-06T00:31:02;3.30;99.90
9043;DHT22;4556;49.150;8.808;2022-11-06T00:33:29;6.40;99.90
9043;DHT22;4556;49.150;8.808;2022-11-06T00:35:56;3.40;99.90
9043;DHT22;4556;49.150;8.808;2022-11-06T00:38:23;3.30;99.90
9043;DHT22;4556;49.150;8.808;2022-11-06T00:40:50;3.10;99.90
9043;DHT22;4556;49.150;8.808;2022-11-06T00:43:17;3.10;99.90
9043;DHT22;4556;49.150;8.808;2022-11-06T00:45:44;4.20;99.90
9043;DHT22;4556;49.150;8.808;2022-11-06T00:48:12;4.60;99.90
9043;DHT22;4556;49.150;8.808;2022-11-06T00:50:39;3.20;99.90
9043;DHT22;4556;49.150;8.808;2022-11-06T00:53:06;3.20;99.90
9043;DHT22;4556;49.150;8.808;2022-11-06T00:55:33;5.00;99.90
9043;DHT22;4556;49.150;8.808;2022-11-06T00:58:01;3.10;99.90
9043;DHT22;4556;49.150;8.808;2022-11-06T01:00:28;4.90;99.90
9043;DHT22;4556;49.150;8.808;2022-11-06T01:02:56;4.20;99.90
9043;DHT22;4556;49.150;8.808;2022-11-06T01:05:24;4.50;99.90
9043;DHT22;4556;49.150;8.808;2022-11-06T01:07:51;2.80;99.90
9043;DHT22;4556;49.150;8.808;2022-11-06T01:10:18;3.90;99.90
9043;DHT22;4556;49.150;8.808;2022-11-06T01:12:45;2.80;99.90
9043;DHT22;4556;49.150;8.808;2022-11-06T01:15:12;2.70;99.90
9043;DHT22;4556;49.150;8.808;2022-11-06T01:17:39;5.40;99.90
9043;DHT22;4556;49.150;8.808;2022-11-06T01:20:07;2.70;99.90
9043;DHT22;4556;49.150;8.808;2022-11-06T01:22:36;2.70;99.90
9043;DHT22;4556;49.150;8.808;2022-11-06T01:25:03;5.20;99.90
9043;DHT22;4556;49.150;8.808;2022-11-06T01:27:30;2.40;99.90
9043;DHT22;4556;49.150;8.808;2022-11-06T01:29:57;3.70;99.90
9043;DHT22;4556;49.150;8.808;2022-11-06T01:32:24;4.30;99.90
9043;DHT22;4556;49.150;8.808;2022-11-06T01:34:51;2.60;99.90
9043;DHT22;4556;49.150;8.808;2022-11-06T01:37:18;2.80;99.90
9043;DHT22;4556;49.150;8.808;2022-11-06T01:39:47;3.80;99.90
9043;DHT22;4556;49.150;8.808;2022-11-06T01:42:14;2.50;99.90
9043;DHT22;4556;49.150;8.808;2022-11-06T01:45:14;3.80;99.90
9043;DHT22;4556;49.150;8.808;2022-11-06T01:47:45;3.10;99.90
9043;DHT22;4556;49.150;8.808;2022-11-06T01:50:13;3.90;99.90
9043;DHT22;4556;49.150;8.808;2022-11-06T01:52:42;3.90;99.90
9043;DHT22;4556;49.150;8.808;2022-11-06T01:55:15;5.30;99.90
9043;DHT22;4556;49.150;8.808;2022-11-06T01:57:43;2.20;99.90
9043;DHT22;4556;49.150;8.808;2022-11-06T02:00:12;4.50;99.90
9043;DHT22;4556;49.150;8.808;2022-11-06T02:02:39;2.30;99.90
9043;DHT22;4556;49.150;8.808;2022-11-06T02:05:07;4.70;99.90
9043;DHT22;4556;49.150;8.808;2022-11-06T02:07:34;2.10;99.90
9043;DHT22;4556;49.150;8.808;2022-11-06T02:10:03;5.00;99.90
9043;DHT22;4556;49.150;8.808;2022-11-06T02:12:41;2.00;99.90
9043;DHT22;4556;49.150;8.808;2022-11-06T02:15:13;5.10;99.90
9043;DHT22;4556;49.150;8.808;2022-11-06T02:17:56;4.20;99.90
9043;DHT22;4556;49.150;8.808;2022-11-06T02:20:31;2.30;99.90
9043;DHT22;4556;49.150;8.808;2022-11-06T02:23:09;1.60;99.90
9043;DHT22;4556;49.150;8.808;2022-11-06T02:25:47;1.90;99.90
9043;DHT22;4556;49.150;8.808;2022-11-06T02:28:22;1.80;99.90
9043;DHT22;4556;49.150;8.808;2022-11-06T02:30:52;4.70;99.90
9043;DHT22;4556;49.150;8.808;2022-11-06T02:33:25;1.90;99.90
9043;DHT22;4556;49.150;8.808;2022-11-06T02:35:59;2.00;99.90
9043;DHT22;4556;49.150;8.808;2022-11-06T02:38:31;4.80;99.90
9043;DHT22;4556;49.150;8.808;2022-11-06T02:41:02;3.80;99.90
9043;DHT22;4556;49.150;8.808;2022-11-06T02:43:37;1.80;99.90
9043;DHT22;4556;49.150;8.808;2022-11-06T02:46:08;2.60;99.90
9043;DHT22;4556;49.150;8.808;2022-11-06T02:48:40;2.80;99.90
9043;DHT22;4556;49.150;8.808;2022-11-06T02:51:09;2.60;99.90
9043;DHT22;4556;49.150;8.808;2022-11-06T02:53:39;4.80;99.90
9043;DHT22;4556;49.150;8.808;2022-11-06T02:56:10;2.40;99.90
9043;DHT22;4556;49.150;8.808;2022-11-06T02:58:42;4.90;99.90
9043;DHT22;4556;49.150;8.808;2022-11-06T03:01:13;4.30;99.90
9043;DHT22;4556;49.150;8.808;2022-11-06T03:03:44;2.50;99.90
9043;DHT22;4556;49.150;8.808;2022-11-06T03:06:16;4.20;99.90
9043;DHT22;4556;49.150;8.808;2022-11-06T03:08:47;5.10;99.90
9043;DHT22;4556;49.150;8.808;2022-11-06T03:11:21;5.00;99.90
9043;DHT22;4556;49.150;8.808;2022-11-06T03:13:55;2.50;99.90
9043;DHT22;4556;49.150;8.808;2022-11-06T03:16:32;2.30;99.90
9043;DHT22;4556;49.150;8.808;2022-11-06T03:19:05;5.30;99.90
9043;DHT22;4556;49.150;8.808;2022-11-06T03:21:40;2.20;99.90
9043;DHT22;4556;49.150;8.808;2022-11-06T03:24:13;4.10;99.90
9043;DHT22;4556;49.150;8.808;2022-11-06T03:26:44;4.20;99.90
9043;DHT22;4556;49.150;8.808;2022-11-06T03:29:17;2.30;99.90
9043;DHT22;4556;49.150;8.808;2022-11-06T03:31:50;2.40;99.90
9043;DHT22;4556;49.150;8.808;2022-11-06T03:34:24;5.30;99.90
9043;DHT22;4556;49.150;8.808;2022-11-06T03:36:58;3.50;99.90
9043;DHT22;4556;49.150;8.808;2022-11-06T03:39:30;4.20;99.90
9043;DHT22;4556;49.150;8.808;2022-11-06T03:42:01;3.00;99.90
9043;DHT22;4556;49.150;8.808;2022-11-06T03:44:33;2.00;99.90
9043;DHT22;4556;49.150;8.808;2022-11-06T03:47:06;3.80;99.90
9043;DHT22;4556;49.150;8.808;2022-11-06T03:49:37;5.00;99.90
9043;DHT22;4556;49.150;8.808;2022-11-06T03:52:07;2.40;99.90
9043;DHT22;4556;49.150;8.808;2022-11-06T03:54:40;4.30;99.90
9043;DHT22;4556;49.150;8.808;2022-11-06T03:57:11;3.50;99.90
9043;DHT22;4556;49.150;8.808;2022-11-06T03:59:47;4.70;99.90
9043;DHT22;4556;49.150;8.808;2022-11-06T04:02:17;4.80;99.90
9043;DHT22;4556;49.150;8.808;2022-11-06T04:04:48;3.50;99.90
9043;DHT22;4556;49.150;8.808;2022-11-06T04:07:19;2.30;99.90
9043;DHT22;4556;49.150;8.808;2022-11-06T04:09:51;5.20;99.90
9043;DHT22;4556;49.150;8.808;2022-11-06T04:12:38;4.70;99.90
9043;DHT22;4556;49.150;8.808;2022-11-06T04:15:26;3.20;99.90
9043;DHT22;4556;49.150;8.808;2022-11-06T04:17:56;2.40;99.90
9043;DHT22;4556;49.150;8.808;2022-11-06T04:20:24;2.30;99.90
9043;DHT22;4556;49.150;8.808;2022-11-06T04:23:20;2.20;99.90
9043;DHT22;4556;49.150;8.808;2022-11-06T04:25:59;2.30;99.90
9043;DHT22;4556;49.150;8.808;2022-11-06T04:28:50;2.70;99.90
9043;DHT22;4556;49.150;8.808;2022-11-06T04:31:26;2.40;99.90
9043;DHT22;4556;49.150;8.808;2022-11-06T04:33:59;2.40;99.90
9043;DHT22;4556;49.150;8.808;2022-11-06T04:36:39;3.30;99.90
9043;DHT22;4556;49.150;8.808;2022-11-06T04:39:13;3.00;99.90
9043;DHT22;4556;49.150;8.808;2022-11-06T04:41:47;4.30;99.90
9043;DHT22;4556;49.150;8.808;2022-11-06T04:44:24;3.70;99.90
9043;DHT22;4556;49.150;8.808;2022-11-06T04:46:56;3.60;99.90
9043;DHT22;4556;49.150;8.808;2022-11-06T04:49:25;4.60;99.90
9043;DHT22;4556;49.150;8.808;2022-11-06T04:51:53;3.10;99.90
9043;DHT22;4556;49.150;8.808;2022-11-06T04:54:21;2.20;99.90
9043;DHT22;4556;49.150;8.808;2022-11-06T04:56:48;2.30;99.90
9043;DHT22;4556;49.150;8.808;2022-11-06T04:59:17;2.30;99.90
9043;DHT22;4556;49.150;8.808;2022-11-06T05:01:44;4.90;99.90
9043;DHT22;4556;49.150;8.808;2022-11-06T05:04:13;2.20;99.90
9043;DHT22;4556;49.150;8.808;2022-11-06T05:06:40;1.90;99.90
9043;DHT22;4556;49.150;8.808;2022-11-06T05:09:07;3.70;99.90
9043;DHT22;4556;49.150;8.808;2022-11-06T05:11:34;2.50;99.90
9043;DHT22;4556;49.150;8.808;2022-11-06T05:14:03;4.30;99.90
9043;DHT22;4556;49.150;8.808;2022-11-06T05:16:30;1.70;99.90
9043;DHT22;4556;49.150;8.808;2022-11-06T05:18:56;1.70;99.90
9043;DHT22;4556;49.150;8.808;2022-11-06T05:21:25;2.30;99.90
9043;DHT22;4556;49.150;8.808;2022-11-06T05:24:09;2.70;99.90
9043;DHT22;4556;49.150;8.808;2022-11-06T05:26:36;4.00;99.90
9043;DHT22;4556;49.150;8.808;2022-11-06T05:29:03;1.60;99.90
9043;DHT22;4556;49.150;8.808;2022-11-06T05:31:30;4.00;99.90
9043;DHT22;4556;49.150;8.808;2022-11-06T05:33:57;1.50;99.90
9043;DHT22;4556;49.150;8.808;2022-11-06T05:36:26;1.40;99.90
9043;DHT22;4556;49.150;8.808;2022-11-06T05:38:52;1.30;99.90
9043;DHT22;4556;49.150;8.808;2022-11-06T05:41:20;4.10;99.90
9043;DHT22;4556;49.150;8.808;2022-11-06T05:43:46;1.10;99.90
9043;DHT22;4556;49.150;8.808;2022-11-06T05:46:13;3.70;99.90
9043;DHT22;4556;49.150;8.808;2022-11-06T05:48:40;3.50;99.90
9043;DHT22;4556;49.150;8.808;2022-11-06T05:51:08;1.30;99.90
9043;DHT22;4556;49.150;8.808;2022-11-06T05:53:37;1.10;99.90
9043;DHT22;4556;49.150;8.808;2022-11-06T05:56:04;3.70;99.90
9043;DHT22;4556;49.150;8.808;2022-11-06T05:58:31;1.10;99.90
9043;DHT22;4556;49.150;8.808;2022-11-06T06:00:58;2.40;99.90
9043;DHT22;4556;49.150;8.808;2022-11-06T06:03:26;3.30;99.90
9043;DHT22;4556;49.150;8.808;2022-11-06T06:05:53;0.90;99.90
9043;DHT22;4556;49.150;8.808;2022-11-06T06:08:19;0.80;99.90
9043;DHT22;4556;49.150;8.808;2022-11-06T06:10:48;0.70;99.90
9043;DHT22;4556;49.150;8.808;2022-11-06T06:13:15;0.80;99.90
9043;DHT22;4556;49.150;8.808;2022-11-06T06:15:42;2.30;99.90
9043;DHT22;4556;49.150;8.808;2022-11-06T06:18:09;1.00;99.90
9043;DHT22;4556;49.150;8.808;2022-11-06T06:20:37;1.10;99.90
9043;DHT22;4556;49.150;8.808;2022-11-06T06:23:04;0.90;99.90
9043;DHT22;4556;49.150;8.808;2022-11-06T06:25:31;1.00;99.90
9043;DHT22;4556;49.150;8.808;2022-11-06T06:27:59;0.90;99.90
9043;DHT22;4556;49.150;8.808;2022-11-06T06:30:26;2.00;99.90
9043;DHT22;4556;49.150;8.808;2022-11-06T06:32:53;4.00;99.90
9043;DHT22;4556;49.150;8.808;2022-11-06T06:35:20;0.80;99.90
9043;DHT22;4556;49.150;8.808;2022-11-06T06:37:52;0.80;99.90
9043;DHT22;4556;49.150;8.808;2022-11-06T06:40:20;1.00;99.90
9043;DHT22;4556;49.150;8.808;2022-11-06T06:42:47;1.10;99.90
9043;DHT22;4556;49.150;8.808;2022-11-06T06:45:16;3.50;99.90
9043;DHT22;4556;49.150;8.808;2022-11-06T06:47:45;1.40;99.90
9043;DHT22;4556;49.150;8.808;2022-11-06T06:50:12;1.30;99.90
9043;DHT22;4556;49.150;8.808;2022-11-06T06:52:39;4.20;99.90
9043;DHT22;4556;49.150;8.808;2022-11-06T06:55:07;3.90;99.90
9043;DHT22;4556;49.150;8.808;2022-11-06T06:57:34;1.30;99.90
9043;DHT22;4556;49.150;8.808;2022-11-06T07:00:01;3.10;99.90
9043;DHT22;4556;49.150;8.808;2022-11-06T07:02:29;4.50;99.90
9043;DHT22;4556;49.150;8.808;2022-11-06T07:04:56;2.00;99.90
9043;DHT22;4556;49.150;8.808;2022-11-06T07:07:23;3.60;99.90
9043;DHT22;4556;49.150;8.808;2022-11-06T07:09:50;1.20;99.90
9043;DHT22;4556;49.150;8.808;2022-11-06T07:12:17;4.60;99.90
9043;DHT22;4556;49.150;8.808;2022-11-06T07:14:44;2.80;99.90
9043;DHT22;4556;49.150;8.808;2022-11-06T07:17:11;4.60;99.90
9043;DHT22;4556;49.150;8.808;2022-11-06T07:19:39;3.40;99.90
9043;DHT22;4556;49.150;8.808;2022-11-06T07:22:06;4.10;99.90
9043;DHT22;4556;49.150;8.808;2022-11-06T07:24:33;5.50;99.90
9043;DHT22;4556;49.150;8.808;2022-11-06T07:27:00;2.70;99.90
9043;DHT22;4556;49.150;8.808;2022-11-06T07:29:46;3.40;99.90
9043;DHT22;4556;49.150;8.808;2022-11-06T07:32:13;3.80;99.90
9043;DHT22;4556;49.150;8.808;2022-11-06T07:34:40;2.80;99.90
9043;DHT22;4556;49.150;8.808;2022-11-06T07:37:07;4.70;99.90
9043;DHT22;4556;49.150;8.808;2022-11-06T07:39:36;2.90;99.90
9043;DHT22;4556;49.150;8.808;2022-11-06T07:42:03;2.90;99.90
9043;DHT22;4556;49.150;8.808;2022-11-06T07:44:30;4.00;99.90
9043;DHT22;4556;49.150;8.808;2022-11-06T07:46:58;4.10;99.90
9043;DHT22;4556;49.150;8.808;2022-11-06T07:49:25;5.50;99.90
9043;DHT22;4556;49.150;8.808;2022-11-06T07:51:52;5.30;99.90
9043;DHT22;4556;49.150;8.808;2022-11-06T07:54:19;6.40;99.90
9043;DHT22;4556;49.150;8.808;2022-11-06T07:56:46;5.50;99.90
9043;DHT22;4556;49.150;8.808;2022-11-06T07:59:13;3.50;99.90
9043;DHT22;4556;49.150;8.808;2022-11-06T08:01:40;3.70;99.90
9043;DHT22;4556;49.150;8.808;2022-11-06T08:04:10;5.60;99.90
9043;DHT22;4556;49.150;8.808;2022-11-06T08:06:37;5.00;99.90
9043;DHT22;4556;49.150;8.808;2022-11-06T08:09:06;4.10;99.90
9043;DHT22;4556;49.150;8.808;2022-11-06T08:11:33;4.10;99.90
9043;DHT22;4556;49.150;8.808;2022-11-06T08:14:00;5.90;99.90
9043;DHT22;4556;49.150;8.808;2022-11-06T08:16:28;4.30;99.90
9043;DHT22;4556;49.150;8.808;2022-11-06T08:18:56;4.30;99.90
9043;DHT22;4556;49.150;8.808;2022-11-06T08:21:24;4.30;99.90
9043;DHT22;4556;49.150;8.808;2022-11-06T08:23:51;4.60;99.90
9043;DHT22;4556;49.150;8.808;2022-11-06T08:26:18;4.70;99.90
9043;DHT22;4556;49.150;8.808;2022-11-06T08:28:45;6.50;99.90
9043;DHT22;4556;49.150;8.808;2022-11-06T08:31:12;6.30;99.90
9043;DHT22;4556;49.150;8.808;2022-11-06T08:33:39;5.70;99.90
9043;DHT22;4556;49.150;8.808;2022-11-06T08:36:08;4.90;99.90
9043;DHT22;4556;49.150;8.808;2022-11-06T08:38:36;4.90;99.90
9043;DHT22;4556;49.150;8.808;2022-11-06T08:41:05;5.20;99.90
9043;DHT22;4556;49.150;8.808;2022-11-06T08:43:32;5.00;99.90
9043;DHT22;4556;49.150;8.808;2022-11-06T08:45:59;5.90;99.90
9043;DHT22;4556;49.150;8.808;2022-11-06T08:48:26;5.40;99.90
9043;DHT22;4556;49.150;8.808;2022-11-06T08:50:53;5.60;99.90
9043;DHT22;4556;49.150;8.808;2022-11-06T08:53:20;7.20;99.90
9043;DHT22;4556;49.150;8.808;2022-11-06T08:55:48;5.60;99.90
9043;DHT22;4556;49.150;8.808;2022-11-06T08:58:15;5.60;99.90
9043;DHT22;4556;49.150;8.808;2022-11-06T09:00:42;5.80;99.90
9043;DHT22;4556;49.150;8.808;2022-11-06T09:03:11;5.90;99.90
9043;DHT22;4556;49.150;8.808;2022-11-06T09:05:39;8.00;99.90
9043;DHT22;4556;49.150;8.808;2022-11-06T09:08:07;6.10;99.90
9043;DHT22;4556;49.150;8.808;2022-11-06T09:10:35;6.60;99.90
9043;DHT22;4556;49.150;8.808;2022-11-06T09:13:04;8.60;99.90
9043;DHT22;4556;49.150;8.808;2022-11-06T09:15:31;6.60;99.90
9043;DHT22;4556;49.150;8.808;2022-11-06T09:17:58;6.50;99.90
9043;DHT22;4556;49.150;8.808;2022-11-06T09:20:25;6.50;99.90
9043;DHT22;4556;49.150;8.808;2022-11-06T09:22:53;6.60;99.90
9043;DHT22;4556;49.150;8.808;2022-11-06T09:25:20;7.80;99.90
9043;DHT22;4556;49.150;8.808;2022-11-06T09:27:49;9.90;99.90
9043;DHT22;4556;49.150;8.808;2022-11-06T09:30:19;6.90;99.90
9043;DHT22;4556;49.150;8.808;2022-11-06T09:32:48;9.20;99.90
9043;DHT22;4556;49.150;8.808;2022-11-06T09:35:16;7.00;99.90
9043;DHT22;4556;49.150;8.808;2022-11-06T09:37:43;7.10;99.90
9043;DHT22;4556;49.150;8.808;2022-11-06T09:40:17;9.50;99.90
9043;DHT22;4556;49.150;8.808;2022-11-06T09:42:56;7.20;99.90
9043;DHT22;4556;49.150;8.808;2022-11-06T09:45:28;6.00;99.90
9043;DHT22;4556;49.150;8.808;2022-11-06T09:48:01;7.50;99.90
9043;DHT22;4556;49.150;8.808;2022-11-06T09:50:34;7.90;99.90
9043;DHT22;4556;49.150;8.808;2022-11-06T09:53:05;7.60;99.90
9043;DHT22;4556;49.150;8.808;2022-11-06T09:55:39;7.70;99.90
9043;DHT22;4556;49.150;8.808;2022-11-06T09:58:12;9.50;99.90
9043;DHT22;4556;49.150;8.808;2022-11-06T10:00:41;9.90;99.90
9043;DHT22;4556;49.150;8.808;2022-11-06T10:03:15;10.60;99.90
9043;DHT22;4556;49.150;8.808;2022-11-06T10:05:46;7.90;99.90
9043;DHT22;4556;49.150;8.808;2022-11-06T10:08:16;8.90;99.90
9043;DHT22;4556;49.150;8.808;2022-11-06T10:10:56;8.00;99.90
9043;DHT22;4556;49.150;8.808;2022-11-06T10:13:42;8.40;99.90
9043;DHT22;4556;49.150;8.808;2022-11-06T10:16:17;8.10;99.90
9043;DHT22;4556;49.150;8.808;2022-11-06T10:18:55;9.20;99.90
9043;DHT22;4556;49.150;8.808;2022-11-06T10:21:29;8.60;99.90
9043;DHT22;4556;49.150;8.808;2022-11-06T10:24:05;11.00;99.90
9043;DHT22;4556;49.150;8.808;2022-11-06T10:26:38;8.70;99.90
9043;DHT22;4556;49.150;8.808;2022-11-06T10:29:30;9.50;99.90
9043;DHT22;4556;49.150;8.808;2022-11-06T10:32:11;9.00;99.90
9043;DHT22;4556;49.150;8.808;2022-11-06T10:34:46;9.90;99.90
9043;DHT22;4556;49.150;8.808;2022-11-06T10:37:18;10.70;99.90
9043;DHT22;4556;49.150;8.808;2022-11-06T10:39:48;9.20;99.90
9043;DHT22;4556;49.150;8.808;2022-11-06T10:42:17;10.20;99.90
9043;DHT22;4556;49.150;8.808;2022-11-06T10:44:47;11.30;99.90
9043;DHT22;4556;49.150;8.808;2022-11-06T10:47:28;9.20;99.90
9043;DHT22;4556;49.150;8.808;2022-11-06T10:49:59;10.10;99.90
9043;DHT22;4556;49.150;8.808;2022-11-06T10:52:44;9.20;99.90
9043;DHT22;4556;49.150;8.808;2022-11-06T10:58:20;9.20;99.90
9043;DHT22;4556;49.150;8.808;2022-11-06T11:00:48;11.60;99.90
9043;DHT22;4556;49.150;8.808;2022-11-06T11:03:22;9.30;99.90
9043;DHT22;4556;49.150;8.808;2022-11-06T11:05:50;8.70;99.90
9043;DHT22;4556;49.150;8.808;2022-11-06T11:08:38;9.40;99.90
9043;DHT22;4556;49.150;8.808;2022-11-06T11:11:19;10.70;99.90
9043;DHT22;4556;49.150;8.808;2022-11-06T11:13:49;11.80;99.90
9043;DHT22;4556;49.150;8.808;2022-11-06T11:16:17;9.50;99.90
9043;DHT22;4556;49.150;8.808;2022-11-06T11:18:48;9.50;99.90
9043;DHT22;4556;49.150;8.808;2022-11-06T11:21:23;9.70;99.90
9043;DHT22;4556;49.150;8.808;2022-11-06T11:24:05;11.60;99.90
9043;DHT22;4556;49.150;8.808;2022-11-06T11:26:38;9.90;99.90
9043;DHT22;4556;49.150;8.808;2022-11-06T11:29:15;10.80;99.90
9043;DHT22;4556;49.150;8.808;2022-11-06T11:31:46;13.00;99.90
9043;DHT22;4556;49.150;8.808;2022-11-06T11:34:19;12.00;99.90
9043;DHT22;4556;49.150;8.808;2022-11-06T11:36:49;9.90;99.90
9043;DHT22;4556;49.150;8.808;2022-11-06T11:39:18;9.70;99.90
9043;DHT22;4556;49.150;8.808;2022-11-06T11:42:24;10.30;99.90
9043;DHT22;4556;49.150;8.808;2022-11-06T11:45:16;10.10;99.90
9043;DHT22;4556;49.150;8.808;2022-11-06T11:47:45;10.10;99.90
9043;DHT22;4556;49.150;8.808;2022-11-06T11:50:30;10.10;99.90
9043;DHT22;4556;49.150;8.808;2022-11-06T11:53:02;10.20;99.90
9043;DHT22;4556;49.150;8.808;2022-11-06T11:55:30;11.00;99.90
9043;DHT22;4556;49.150;8.808;2022-11-06T11:58:02;10.10;99.90
9043;DHT22;4556;49.150;8.808;2022-11-06T12:00:29;10.10;99.90
9043;DHT22;4556;49.150;8.808;2022-11-06T12:02:57;10.90;99.90
9043;DHT22;4556;49.150;8.808;2022-11-06T12:05:32;11.10;99.90
9043;DHT22;4556;49.150;8.808;2022-11-06T12:07:59;12.20;99.90
9043;DHT22;4556;49.150;8.808;2022-11-06T12:10:29;10.30;99.90
9043;DHT22;4556;49.150;8.808;2022-11-06T12:12:59;10.50;99.90
9043;DHT22;4556;49.150;8.808;2022-11-06T12:15:30;11.50;99.90
9043;DHT22;4556;49.150;8.808;2022-11-06T12:18:02;10.20;99.90
9043;DHT22;4556;49.150;8.808;2022-11-06T12:20:35;10.20;99.90
9043;DHT22;4556;49.150;8.808;2022-11-06T12:23:10;10.20;99.90
9043;DHT22;4556;49.150;8.808;2022-11-06T12:25:40;10.20;99.90
9043;DHT22;4556;49.150;8.808;2022-11-06T12:28:12;10.10;99.90
9043;DHT22;4556;49.150;8.808;2022-11-06T12:30:40;10.00;99.90
9043;DHT22;4556;49.150;8.808;2022-11-06T12:33:10;11.30;99.90
9043;DHT22;4556;49.150;8.808;2022-11-06T12:35:45;9.90;99.90
9043;DHT22;4556;49.150;8.808;2022-11-06T12:38:25;9.90;99.90
9043;DHT22;4556;49.150;8.808;2022-11-06T12:40:58;9.90;99.90
9043;DHT22;4556;49.150;8.808;2022-11-06T12:43:32;11.50;99.90
9043;DHT22;4556;49.150;8.808;2022-11-06T12:46:17;9.90;99.90
9043;DHT22;4556;49.150;8.808;2022-11-06T12:49:19;10.00;99.90
9043;DHT22;4556;49.150;8.808;2022-11-06T12:51:59;10.90;99.90
9043;DHT22;4556;49.150;8.808;2022-11-06T12:54:51;10.00;99.90
9043;DHT22;4556;49.150;8.808;2022-11-06T12:57:32;10.00;99.90
9043;DHT22;4556;49.150;8.808;2022-11-06T13:00:06;10.00;99.90
9043;DHT22;4556;49.150;8.808;2022-11-06T13:02:50;10.00;99.90
9043;DHT22;4556;49.150;8.808;2022-11-06T13:05:26;10.10;99.90
9043;DHT22;4556;49.150;8.808;2022-11-06T13:08:07;10.40;99.90
9043;DHT22;4556;49.150;8.808;2022-11-06T13:10:49;10.20;99.90
9043;DHT22;4556;49.150;8.808;2022-11-06T13:13:28;10.10;99.90
9043;DHT22;4556;49.150;8.808;2022-11-06T13:16:02;12.40;99.90
9043;DHT22;4556;49.150;8.808;2022-11-06T13:18:34;12.10;99.90
9043;DHT22;4556;49.150;8.808;2022-11-06T13:21:07;10.60;99.90
9043;DHT22;4556;49.150;8.808;2022-11-06T13:23:42;10.30;99.90
9043;DHT22;4556;49.150;8.808;2022-11-06T13:26:14;10.10;99.90
9043;DHT22;4556;49.150;8.808;2022-11-06T13:28:45;10.40;99.90
9043;DHT22;4556;49.150;8.808;2022-11-06T13:31:17;11.30;99.90
9043;DHT22;4556;49.150;8.808;2022-11-06T13:33:50;10.30;99.90
9043;DHT22;4556;49.150;8.808;2022-11-06T13:36:19;11.70;99.90
9043;DHT22;4556;49.150;8.808;2022-11-06T13:38:51;10.10;99.90
9043;DHT22;4556;49.150;8.808;2022-11-06T13:41:21;11.00;99.90
9043;DHT22;4556;49.150;8.808;2022-11-06T13:43:53;10.10;99.90
9043;DHT22;4556;49.150;8.808;2022-11-06T13:46:29;10.10;99.90
9043;DHT22;4556;49.150;8.808;2022-11-06T13:49:06;12.40;99.90
9043;DHT22;4556;49.150;8.808;2022-11-06T13:51:43;10.10;99.90
9043;DHT22;4556;49.150;8.808;2022-11-06T13:54:20;11.20;99.90
9043;DHT22;4556;49.150;8.808;2022-11-06T13:57:35;10.10;99.90
9043;DHT22;4556;49.150;8.808;2022-11-06T14:00:17;10.00;99.90
9043;DHT22;4556;49.150;8.808;2022-11-06T14:03:22;9.90;99.90
9043;DHT22;4556;49.150;8.808;2022-11-06T14:05:58;9.90;99.90
9043;DHT22;4556;49.150;8.808;2022-11-06T14:08:29;9.90;99.90
9043;DHT22;4556;49.150;8.808;2022-11-06T14:11:00;9.90;99.90
9043;DHT22;4556;49.150;8.808;2022-11-06T14:13:32;10.30;99.90
9043;DHT22;4556;49.150;8.808;2022-11-06T14:16:02;9.80;99.90
9043;DHT22;4556;49.150;8.808;2022-11-06T14:18:30;9.80;99.90
9043;DHT22;4556;49.150;8.808;2022-11-06T14:21:25;11.60;99.90
9043;DHT22;4556;49.150;8.808;2022-11-06T14:23:53;9.70;99.90
9043;DHT22;4556;49.150;8.808;2022-11-06T14:26:37;11.60;99.90
9043;DHT22;4556;49.150;8.808;2022-11-06T14:32:09;9.70;99.90
9043;DHT22;4556;49.150;8.808;2022-11-06T14:34:39;10.80;99.90
9043;DHT22;4556;49.150;8.808;2022-11-06T14:40:04;9.60;99.90
9043;DHT22;4556;49.150;8.808;2022-11-06T14:42:35;9.60;99.90
9043;DHT22;4556;49.150;8.808;2022-11-06T14:45:09;10.40;99.90
9043;DHT22;4556;49.150;8.808;2022-11-06T14:47:39;9.60;99.90
9043;DHT22;4556;49.150;8.808;2022-11-06T14:50:23;9.70;99.90
9043;DHT22;4556;49.150;8.808;2022-11-06T14:52:53;9.70;99.90
9043;DHT22;4556;49.150;8.808;2022-11-06T14:55:26;10.40;99.90
9043;DHT22;4556;49.150;8.808;2022-11-06T14:57:57;9.80;99.90
9043;DHT22;4556;49.150;8.808;2022-11-06T15:00:36;9.80;99.90
9043;DHT22;4556;49.150;8.808;2022-11-06T15:03:07;9.70;99.90
9043;DHT22;4556;49.150;8.808;2022-11-06T15:05:41;11.20;99.90
9043;DHT22;4556;49.150;8.808;2022-11-06T15:08:08;9.70;99.90
9043;DHT22;4556;49.150;8.808;2022-11-06T15:10:54;9.60;99.90
9043;DHT22;4556;49.150;8.808;2022-11-06T15:13:27;9.50;99.90
9043;DHT22;4556;49.150;8.808;2022-11-06T15:16:09;9.50;99.90
9043;DHT22;4556;49.150;8.808;2022-11-06T15:18:40;10.00;99.90
9043;DHT22;4556;49.150;8.808;2022-11-06T15:21:14;9.30;99.90
9043;DHT22;4556;49.150;8.808;2022-11-06T15:23:55;9.30;99.90
9043;DHT22;4556;49.150;8.808;2022-11-06T15:26:31;10.50;99.90
9043;DHT22;4556;49.150;8.808;2022-11-06T15:29:12;9.60;99.90
9043;DHT22;4556;49.150;8.808;2022-11-06T15:31:46;10.00;99.90
9043;DHT22;4556;49.150;8.808;2022-11-06T15:34:17;9.10;99.90
9043;DHT22;4556;49.150;8.808;2022-11-06T15:36:48;11.20;99.90
9043;DHT22;4556;49.150;8.808;2022-11-06T15:39:31;10.40;99.90
9043;DHT22;4556;49.150;8.808;2022-11-06T15:41:58;8.90;99.90
9043;DHT22;4556;49.150;8.808;2022-11-06T15:44:27;10.10;99.90
9043;DHT22;4556;49.150;8.808;2022-11-06T15:46:56;10.60;99.90
9043;DHT22;4556;49.150;8.808;2022-11-06T15:49:25;11.00;99.90
9043;DHT22;4556;49.150;8.808;2022-11-06T15:51:54;8.60;99.90
9043;DHT22;4556;49.150;8.808;2022-11-06T15:54:39;8.60;99.90
9043;DHT22;4556;49.150;8.808;2022-11-06T15:57:14;8.50;99.90
9043;DHT22;4556;49.150;8.808;2022-11-06T15:59:44;8.40;99.90
9043;DHT22;4556;49.150;8.808;2022-11-06T16:02:17;8.50;99.90
9043;DHT22;4556;49.150;8.808;2022-11-06T16:04:44;10.50;99.90
9043;DHT22;4556;49.150;8.808;2022-11-06T16:07:12;8.40;99.90
9043;DHT22;4556;49.150;8.808;2022-11-06T16:09:41;10.80;99.90
9043;DHT22;4556;49.150;8.808;2022-11-06T16:12:10;10.90;99.90
9043;DHT22;4556;49.150;8.808;2022-11-06T16:14:38;10.30;99.90
9043;DHT22;4556;49.150;8.808;2022-11-06T16:17:12;8.40;99.90
9043;DHT22;4556;49.150;8.808;2022-11-06T16:19:43;10.30;99.90
9043;DHT22;4556;49.150;8.808;2022-11-06T16:22:14;10.30;99.90
9043;DHT22;4556;49.150;8.808;2022-11-06T16:24:44;8.50;99.90
9043;DHT22;4556;49.150;8.808;2022-11-06T16:27:13;8.50;99.90
9043;DHT22;4556;49.150;8.808;2022-11-06T16:29:44;8.50;99.90
9043;DHT22;4556;49.150;8.808;2022-11-06T16:32:16;8.50;99.90
9043;DHT22;4556;49.150;8.808;2022-11-06T16:34:45;8.50;99.90
9043;DHT22;4556;49.150;8.808;2022-11-06T16:37:37;10.80;99.90
9043;DHT22;4556;49.150;8.808;2022-11-06T16:43:12;8.40;99.90
9043;DHT22;4556;49.150;8.808;2022-11-06T16:45:50;8.40;99.90
9043;DHT22;4556;49.150;8.808;2022-11-06T16:48:27;8.40;99.90
9043;DHT22;4556;49.150;8.808;2022-11-06T16:50:58;8.40;99.90
9043;DHT22;4556;49.150;8.808;2022-11-06T16:53:27;8.40;99.90
9043;DHT22;4556;49.150;8.808;2022-11-06T16:55:55;8.40;99.90